Time,TemperatureF,DewpointF,PressureIn,WindDirection,WindDirectionDegrees,WindSpeedMPH,WindSpeedGustMPH,Humidity,HourlyPrecipIn,Conditions,Clouds,dailyrainin,SolarRadiationWatts/m^2,SoftwareType,DateUTC
2013-02-12 00:00:00,49.5,43.9,29.74,WNW,288,4.0,7.0,81,0.00,,,0.19,0,Wunderground v.1.15,2013-02-12 05:00:00,
2013-02-12 00:05:00,49.6,44.0,29.74,WNW,288,4.0,7.0,81,0.00,,,0.19,0,Wunderground v.1.15,2013-02-12 05:05:00,
2013-02-12 00:15:00,50.2,44.3,29.75,West,259,6.0,9.0,80,0.00,,,0.00,0,Wunderground v.1.15,2013-02-12 05:15:00,
2013-02-12 00:20:00,50.7,44.8,29.75,West,268,5.0,9.0,80,0.00,,,0.00,0,Wunderground v.1.15,2013-02-12 05:20:00,
2013-02-12 00:25:00,51.0,45.0,29.75,West,277,5.0,9.0,80,0.00,,,0.00,0,Wunderground v.1.15,2013-02-12 05:25:00,
2013-02-12 00:30:00,50.7,44.4,29.76,WNW,297,5.0,9.0,79,0.00,,,0.00,0,Wunderground v.1.15,2013-02-12 05:30:00,
2013-02-12 00:35:00,50.5,44.2,29.76,WNW,293,5.0,9.0,79,0.00,,,0.00,0,Wunderground v.1.15,2013-02-12 05:35:00,
2013-02-12 00:40:00,50.4,44.1,29.76,NW,311,5.0,5.0,79,0.00,,,0.00,0,Wunderground v.1.15,2013-02-12 05:40:00,
2013-02-12 00:46:00,50.2,43.9,29.77,WNW,303,5.0,10.0,79,0.00,,,0.00,0,Wunderground v.1.15,2013-02-12 05:46:00,
2013-02-12 00:55:00,49.9,44.0,29.77,NW,314,4.0,10.0,80,0.00,,,0.00,0,Wunderground v.1.15,2013-02-12 05:55:00,
2013-02-12 01:00:00,49.8,43.9,29.77,NW,314,3.0,10.0,80,0.00,,,0.00,0,Wunderground v.1.15,2013-02-12 06:00:00,
2013-02-12 01:05:00,49.5,43.6,29.77,NW,315,4.0,10.0,80,0.00,,,0.00,0,Wunderground v.1.15,2013-02-12 06:05:00,
2013-02-12 01:10:00,49.2,43.3,29.77,NW,317,3.0,10.0,80,0.00,,,0.00,0,Wunderground v.1.15,2013-02-12 06:10:00,
2013-02-12 01:16:00,48.9,42.7,29.78,NW,322,3.0,10.0,79,0.00,,,0.00,0,Wunderground v.1.15,2013-02-12 06:16:00,
2013-02-12 01:26:00,48.2,40.6,29.78,NW,326,4.0,9.0,75,0.00,,,0.00,0,Wunderground v.1.15,2013-02-12 06:26:00,
2013-02-12 01:35:00,47.7,38.8,29.79,NNW,336,4.0,9.0,71,0.00,,,0.00,0,Wunderground v.1.15,2013-02-12 06:35:00,
2013-02-12 01:40:00,47.6,37.6,29.79,NNW,327,5.0,5.0,68,0.00,,,0.00,0,Wunderground v.1.15,2013-02-12 06:40:00,
2013-02-12 01:45:00,47.7,36.5,29.79,NW,317,5.0,14.0,65,0.00,,,0.00,0,Wunderground v.1.15,2013-02-12 06:45:00,
2013-02-12 01:51:00,47.9,35.9,29.79,NW,319,4.0,4.0,63,0.00,,,0.00,0,Wunderground v.1.15,2013-02-12 06:51:00,
2013-02-12 02:00:00,47.9,34.7,29.80,NW,315,4.0,14.0,60,0.00,,,0.00,0,Wunderground v.1.15,2013-02-12 07:00:00,
2013-02-12 02:05:00,47.7,34.5,29.80,NW,314,4.0,14.0,60,0.00,,,0.00,0,Wunderground v.1.15,2013-02-12 07:05:00,
2013-02-12 02:10:00,47.7,34.1,29.80,NW,312,4.0,14.0,59,0.00,,,0.00,0,Wunderground v.1.15,2013-02-12 07:10:00,
2013-02-12 02:16:00,47.6,34.0,29.81,NW,313,4.0,14.0,59,0.00,,,0.00,0,Wunderground v.1.15,2013-02-12 07:16:00,
2013-02-12 02:25:00,47.1,33.1,29.81,NW,317,3.0,8.0,58,0.00,,,0.00,0,Wunderground v.1.15,2013-02-12 07:25:00,
2013-02-12 02:30:00,47.1,33.1,29.81,NW,319,3.0,8.0,58,0.00,,,0.00,0,Wunderground v.1.15,2013-02-12 07:30:00,
2013-02-12 02:35:00,47.0,33.0,29.81,NW,320,3.0,8.0,58,0.00,,,0.00,0,Wunderground v.1.15,2013-02-12 07:35:00,
2013-02-12 02:45:00,46.5,32.9,29.81,NW,321,3.0,8.0,59,0.00,,,0.00,0,Wunderground v.1.15,2013-02-12 07:45:00,
2013-02-12 02:50:00,46.4,32.4,29.81,NW,318,4.0,8.0,58,0.00,,,0.00,0,Wunderground v.1.15,2013-02-12 07:50:00,
2013-02-12 02:55:00,46.4,32.4,29.81,NNW,330,5.0,8.0,58,0.00,,,0.00,0,Wunderground v.1.15,2013-02-12 07:55:00,
2013-02-12 03:00:00,46.4,32.4,29.81,NW,323,5.0,8.0,58,0.00,,,0.00,0,Wunderground v.1.15,2013-02-12 08:00:00,
2013-02-12 03:05:00,46.4,32.4,29.81,NW,312,5.0,8.0,58,0.00,,,0.00,0,Wunderground v.1.15,2013-02-12 08:05:00,
2013-02-12 03:10:00,46.5,32.1,29.81,NW,317,5.0,8.0,57,0.00,,,0.00,0,Wunderground v.1.15,2013-02-12 08:10:00,
2013-02-12 03:15:00,46.5,32.1,29.82,NW,309,4.0,12.0,57,0.00,,,0.00,0,Wunderground v.1.15,2013-02-12 08:15:00,
2013-02-12 03:21:00,46.5,32.1,29.82,NW,313,4.0,4.0,57,0.00,,,0.00,0,Wunderground v.1.15,2013-02-12 08:21:00,
2013-02-12 03:30:00,46.5,31.2,29.81,NW,314,6.0,6.0,55,0.00,,,0.00,0,Wunderground v.1.15,2013-02-12 08:30:00,
2013-02-12 03:35:00,46.7,31.4,29.81,WNW,301,6.0,12.0,55,0.00,,,0.00,0,Wunderground v.1.15,2013-02-12 08:35:00,
2013-02-12 03:40:00,46.5,31.2,29.81,NW,321,5.0,5.0,55,0.00,,,0.00,0,Wunderground v.1.15,2013-02-12 08:40:00,
2013-02-12 03:45:00,46.5,30.7,29.81,NW,306,6.0,6.0,54,0.00,,,0.00,0,Wunderground v.1.15,2013-02-12 08:45:00,
2013-02-12 03:55:00,46.8,30.1,29.81,NW,323,8.0,8.0,52,0.00,,,0.00,0,Wunderground v.1.15,2013-02-12 08:55:00,
2013-02-12 04:00:00,47.1,29.9,29.82,WNW,295,8.0,8.0,51,0.00,,,0.00,0,Wunderground v.1.15,2013-02-12 09:00:00,
2013-02-12 04:05:00,47.3,29.6,29.82,NW,309,7.0,14.0,50,0.00,,,0.00,0,Wunderground v.1.15,2013-02-12 09:05:00,
2013-02-12 04:11:00,47.3,29.1,29.82,WNW,297,7.0,7.0,49,0.00,,,0.00,0,Wunderground v.1.15,2013-02-12 09:11:00,
2013-02-12 04:20:00,47.6,28.9,29.82,NW,304,8.0,15.0,48,0.00,,,0.00,0,Wunderground v.1.15,2013-02-12 09:20:00,
2013-02-12 04:25:00,47.7,28.4,29.82,WNW,295,8.0,15.0,47,0.00,,,0.00,0,Wunderground v.1.15,2013-02-12 09:25:00,
2013-02-12 04:30:00,47.7,28.4,29.82,WNW,288,8.0,8.0,47,0.00,,,0.00,0,Wunderground v.1.15,2013-02-12 09:30:00,
2013-02-12 04:35:00,47.7,28.4,29.82,WNW,284,6.0,15.0,47,0.00,,,0.00,0,Wunderground v.1.15,2013-02-12 09:35:00,
2013-02-12 04:40:00,47.4,28.7,29.82,West,260,6.0,15.0,48,0.00,,,0.00,0,Wunderground v.1.15,2013-02-12 09:40:00,
2013-02-12 04:45:00,47.6,28.9,29.83,West,273,6.0,19.0,48,0.00,,,0.00,0,Wunderground v.1.15,2013-02-12 09:45:00,
2013-02-12 04:50:00,47.3,28.6,29.83,West,280,6.0,6.0,48,0.00,,,0.00,0,Wunderground v.1.15,2013-02-12 09:50:00,
2013-02-12 04:55:00,47.3,29.1,29.83,WSW,257,6.0,19.0,49,0.00,,,0.00,0,Wunderground v.1.15,2013-02-12 09:55:00,
2013-02-12 05:05:00,46.5,28.8,29.85,West,270,6.0,19.0,50,0.00,,,0.00,0,Wunderground v.1.15,2013-02-12 10:05:00,
2013-02-12 05:10:00,46.4,29.2,29.85,West,275,5.0,19.0,51,0.00,,,0.00,0,Wunderground v.1.15,2013-02-12 10:10:00,
2013-02-12 05:15:00,46.1,29.0,29.85,WNW,283,4.0,19.0,51,0.00,,,0.00,0,Wunderground v.1.15,2013-02-12 10:15:00,
2013-02-12 05:21:00,45.8,29.2,29.85,West,281,4.0,4.0,52,0.00,,,0.00,0,Wunderground v.1.15,2013-02-12 10:21:00,
2013-02-12 05:31:00,45.5,29.8,29.86,West,278,4.0,12.0,54,0.00,,,0.00,0,Wunderground v.1.15,2013-02-12 10:31:00,
2013-02-12 05:40:00,45.2,28.6,29.86,WNW,300,5.0,5.0,52,0.00,,,0.00,0,Wunderground v.1.15,2013-02-12 10:40:00,
2013-02-12 05:45:00,45.4,28.8,29.86,WNW,300,4.0,11.0,52,0.00,,,0.00,0,Wunderground v.1.15,2013-02-12 10:45:00,
2013-02-12 05:55:00,45.1,29.0,29.86,WNW,302,3.0,11.0,53,0.00,,,0.00,0,Wunderground v.1.15,2013-02-12 10:55:00,
2013-02-12 06:00:00,45.1,29.0,29.86,WNW,301,3.0,11.0,53,0.00,,,0.00,0,Wunderground v.1.15,2013-02-12 11:00:00,
2013-02-12 06:05:00,45.1,29.0,29.86,WNW,301,3.0,11.0,53,0.00,,,0.00,0,Wunderground v.1.15,2013-02-12 11:05:00,
2013-02-12 06:11:00,44.9,29.2,29.86,WNW,302,2.0,11.0,54,0.00,,,0.00,0,Wunderground v.1.15,2013-02-12 11:11:00,
2013-02-12 06:20:00,44.6,29.4,29.86,WNW,301,1.0,1.0,55,0.00,,,0.00,0,Wunderground v.1.15,2013-02-12 11:20:00,
2013-02-12 06:25:00,44.2,29.5,29.86,WNW,301,0.0,2.0,56,0.00,,,0.00,0,Wunderground v.1.15,2013-02-12 11:25:00,
2013-02-12 06:30:00,43.9,29.6,29.88,WNW,301,1.0,8.0,57,0.00,,,0.00,0,Wunderground v.1.15,2013-02-12 11:30:00,
2013-02-12 06:35:00,43.8,30.0,29.88,WNW,301,3.0,8.0,58,0.00,,,0.00,0,Wunderground v.1.15,2013-02-12 11:35:00,
2013-02-12 06:40:00,43.8,29.5,29.88,WNW,301,4.0,4.0,57,0.00,,,0.00,0,Wunderground v.1.15,2013-02-12 11:40:00,
2013-02-12 06:45:00,43.8,29.1,29.88,WNW,301,4.0,8.0,56,0.00,,,0.00,0,Wunderground v.1.15,2013-02-12 11:45:00,
2013-02-12 06:50:00,44.1,28.9,29.88,WNW,298,4.0,8.0,55,0.00,,,0.00,0,Wunderground v.1.15,2013-02-12 11:50:00,
2013-02-12 06:55:00,44.3,28.7,29.88,WNW,298,4.0,8.0,54,0.00,,,0.00,0,Wunderground v.1.15,2013-02-12 11:55:00,
2013-02-12 07:00:00,44.5,28.9,29.88,WNW,298,4.0,4.0,54,0.00,,,0.00,5,Wunderground v.1.15,2013-02-12 12:00:00,
2013-02-12 07:05:00,44.5,28.9,29.88,WNW,298,3.0,8.0,54,0.00,,,0.00,7,Wunderground v.1.15,2013-02-12 12:05:00,
2013-02-12 07:10:00,44.5,28.9,29.88,WNW,298,2.0,2.0,54,0.00,,,0.00,11,Wunderground v.1.15,2013-02-12 12:10:00,
2013-02-12 07:15:00,44.2,29.0,29.90,WNW,298,1.0,8.0,55,0.00,,,0.00,11,Wunderground v.1.15,2013-02-12 12:15:00,
2013-02-12 07:21:00,43.8,29.5,29.90,WNW,298,0.0,8.0,57,0.00,,,0.00,12,Wunderground v.1.15,2013-02-12 12:21:00,
2013-02-12 07:30:00,43.1,29.3,29.90,WNW,298,0.0,8.0,58,0.00,,,0.00,16,Wunderground v.1.15,2013-02-12 12:30:00,
2013-02-12 07:35:00,44.1,44.1,29.90,WNW,298,0.0,8.0,100,0.00,,,0.00,14,Wunderground v.1.15,2013-02-12 12:35:00,
2013-02-12 07:40:00,45.5,45.5,29.90,WNW,298,1.0,8.0,100,0.00,,,0.00,26,Wunderground v.1.15,2013-02-12 12:40:00,
2013-02-12 07:45:00,43.2,29.8,29.91,WNW,298,1.0,8.0,59,0.00,,,0.00,18,Wunderground v.1.15,2013-02-12 12:45:00,
2013-02-12 07:50:00,43.3,29.1,29.91,WNW,298,1.0,1.0,57,0.00,,,0.00,19,Wunderground v.1.15,2013-02-12 12:50:00,
2013-02-12 07:55:00,43.6,28.5,29.91,WNW,298,1.0,4.0,55,0.00,,,0.00,23,Wunderground v.1.15,2013-02-12 12:55:00,
2013-02-12 08:00:00,43.9,29.2,29.91,WNW,298,1.0,4.0,56,0.00,,,0.00,35,Wunderground v.1.15,2013-02-12 13:00:00,
2013-02-12 08:05:00,44.5,28.9,29.91,WNW,298,2.0,4.0,54,0.00,,,0.00,47,Wunderground v.1.15,2013-02-12 13:05:00,
2013-02-12 08:10:00,44.8,29.2,29.91,WNW,298,1.0,1.0,54,0.00,,,0.00,76,Wunderground v.1.15,2013-02-12 13:10:00,
2013-02-12 08:16:00,44.9,29.7,29.92,WNW,298,0.0,6.0,55,0.00,,,0.00,62,Wunderground v.1.15,2013-02-12 13:16:00,
2013-02-12 08:25:00,45.7,29.1,29.92,WNW,297,2.0,6.0,52,0.00,,,0.00,77,Wunderground v.1.15,2013-02-12 13:25:00,
2013-02-12 08:30:00,46.2,28.1,29.93,WNW,297,5.0,5.0,49,0.00,,,0.00,86,Wunderground v.1.15,2013-02-12 13:30:00,
2013-02-12 08:35:00,46.7,29.0,29.93,WNW,301,6.0,6.0,50,0.00,,,0.00,97,Wunderground v.1.15,2013-02-12 13:35:00,
2013-02-12 08:45:00,47.0,28.3,29.92,WNW,290,5.0,13.0,48,0.00,,,0.00,104,Wunderground v.1.15,2013-02-12 13:45:00,
2013-02-12 08:50:00,47.0,28.3,29.92,WNW,289,6.0,6.0,48,0.00,,,0.00,107,Wunderground v.1.15,2013-02-12 13:50:00,
2013-02-12 08:55:00,47.0,28.3,29.92,West,276,5.0,13.0,48,0.00,,,0.00,97,Wunderground v.1.15,2013-02-12 13:55:00,
2013-02-12 09:01:00,47.1,28.9,29.93,WNW,284,4.0,13.0,49,0.00,,,0.00,62,Wunderground v.1.15,2013-02-12 14:01:00,
2013-02-12 09:10:00,46.7,28.0,29.93,NW,305,6.0,13.0,48,0.00,,,0.00,30,Wunderground v.1.15,2013-02-12 14:10:00,
2013-02-12 09:15:00,46.7,28.0,29.93,WNW,298,6.0,14.0,48,0.00,,,0.00,42,Wunderground v.1.15,2013-02-12 14:15:00,
2013-02-12 09:20:00,47.0,27.8,29.93,WNW,293,5.0,14.0,47,0.00,,,0.00,37,Wunderground v.1.15,2013-02-12 14:20:00,
2013-02-12 09:25:00,47.3,28.1,29.93,NW,306,5.0,14.0,47,0.00,,,0.00,53,Wunderground v.1.15,2013-02-12 14:25:00,
2013-02-12 09:30:00,47.6,28.9,29.93,WNW,283,4.0,4.0,48,0.00,,,0.00,35,Wunderground v.1.15,2013-02-12 14:30:00,
2013-02-12 09:35:00,47.7,28.4,29.93,WNW,301,4.0,6.0,47,0.00,,,0.00,32,Wunderground v.1.15,2013-02-12 14:35:00,
2013-02-12 09:40:00,47.7,28.4,29.93,West,264,6.0,14.0,47,0.00,,,0.00,32,Wunderground v.1.15,2013-02-12 14:40:00,
2013-02-12 09:46:00,47.9,28.6,29.93,WNW,286,6.0,14.0,47,0.00,,,0.00,33,Wunderground v.1.15,2013-02-12 14:46:00,
2013-02-12 09:55:00,48.3,29.0,29.93,West,281,6.0,13.0,47,0.00,,,0.00,33,Wunderground v.1.15,2013-02-12 14:55:00,
2013-02-12 10:00:00,48.5,29.2,29.94,WNW,298,4.0,4.0,47,0.00,,,0.00,40,Wunderground v.1.15,2013-02-12 15:00:00,
2013-02-12 10:05:00,48.5,28.6,29.94,WNW,294,5.0,6.0,46,0.00,,,0.00,44,Wunderground v.1.15,2013-02-12 15:05:00,
2013-02-12 10:11:00,48.6,29.3,29.94,WNW,296,5.0,13.0,47,0.00,,,0.00,44,Wunderground v.1.15,2013-02-12 15:11:00,
2013-02-12 10:20:00,48.8,29.4,29.95,NW,312,5.0,5.0,47,0.00,,,0.00,42,Wunderground v.1.15,2013-02-12 15:20:00,
2013-02-12 10:25:00,48.9,28.5,29.95,WNW,298,5.0,6.0,45,0.00,,,0.00,84,Wunderground v.1.15,2013-02-12 15:25:00,
2013-02-12 10:30:00,49.6,49.6,29.95,WNW,290,5.0,11.0,100,0.00,,,0.00,47,Wunderground v.1.15,2013-02-12 15:30:00,
2013-02-12 10:35:00,49.2,28.2,29.95,NW,314,5.0,11.0,44,0.00,,,0.00,127,Wunderground v.1.15,2013-02-12 15:35:00,
2013-02-12 10:40:00,49.2,28.7,29.95,West,281,5.0,11.0,45,0.00,,,0.00,144,Wunderground v.1.15,2013-02-12 15:40:00,
2013-02-12 10:45:00,49.2,28.7,29.95,NW,315,5.0,14.0,45,0.00,,,0.00,44,Wunderground v.1.15,2013-02-12 15:45:00,
2013-02-12 10:50:00,49.2,28.7,29.95,WNW,298,5.0,14.0,45,0.00,,,0.00,54,Wunderground v.1.15,2013-02-12 15:50:00,
2013-02-12 10:55:00,49.2,28.7,29.95,WNW,286,6.0,14.0,45,0.00,,,0.00,42,Wunderground v.1.15,2013-02-12 15:55:00,
2013-02-12 11:00:00,49.4,29.5,29.96,NW,318,7.0,7.0,46,0.00,,,0.00,54,Wunderground v.1.15,2013-02-12 16:00:00,
2013-02-12 11:11:00,49.6,28.0,29.96,NW,313,7.0,14.0,43,0.00,,,0.00,67,Wunderground v.1.15,2013-02-12 16:11:00,
2013-02-12 11:20:00,49.8,28.7,29.95,NW,314,5.0,13.0,44,0.00,,,0.00,42,Wunderground v.1.15,2013-02-12 16:20:00,
2013-02-12 11:25:00,49.9,28.8,29.95,NNW,330,4.0,13.0,44,0.00,,,0.00,42,Wunderground v.1.15,2013-02-12 16:25:00,
2013-02-12 11:30:00,49.9,28.8,29.95,NNW,331,5.0,13.0,44,0.00,,,0.00,42,Wunderground v.1.15,2013-02-12 16:30:00,
2013-02-12 11:35:00,49.9,28.8,29.95,NNW,340,7.0,13.0,44,0.00,,,0.00,42,Wunderground v.1.15,2013-02-12 16:35:00,
2013-02-12 11:40:00,50.1,28.4,29.95,North,5,7.0,7.0,43,0.00,,,0.00,42,Wunderground v.1.15,2013-02-12 16:40:00,
2013-02-12 11:45:00,50.1,29.0,29.95,WNW,295,5.0,11.0,44,0.00,,,0.00,44,Wunderground v.1.15,2013-02-12 16:45:00,
2013-02-12 11:50:00,50.2,28.0,29.95,North,349,6.0,12.0,42,0.00,,,0.00,44,Wunderground v.1.15,2013-02-12 16:50:00,
2013-02-12 11:55:00,50.4,27.6,29.95,North,360,7.0,12.0,41,0.00,,,0.00,49,Wunderground v.1.15,2013-02-12 16:55:00,
2013-02-12 12:01:00,50.4,27.0,29.94,NNW,328,7.0,7.0,40,0.00,,,0.00,236,Wunderground v.1.15,2013-02-12 17:01:00,
2013-02-12 12:10:00,50.7,27.8,29.94,North,351,6.0,12.0,41,0.00,,,0.00,67,Wunderground v.1.15,2013-02-12 17:10:00,
2013-02-12 12:15:00,50.8,27.3,29.94,WNW,288,5.0,13.0,40,0.00,,,0.00,65,Wunderground v.1.15,2013-02-12 17:15:00,
2013-02-12 12:26:00,51.0,29.3,29.94,WNW,301,5.0,13.0,43,0.00,,,0.00,47,Wunderground v.1.15,2013-02-12 17:26:00,
2013-02-12 12:35:00,51.3,28.4,29.94,NW,312,6.0,6.0,41,0.00,,,0.00,49,Wunderground v.1.15,2013-02-12 17:35:00,
2013-02-12 12:40:00,51.4,27.9,29.94,NNW,338,6.0,6.0,40,0.00,,,0.00,51,Wunderground v.1.15,2013-02-12 17:40:00,
2013-02-12 12:46:00,51.4,28.5,29.93,NW,325,5.0,13.0,41,0.00,,,0.00,65,Wunderground v.1.15,2013-02-12 17:46:00,
2013-02-12 12:55:00,51.7,29.3,29.93,North,360,4.0,13.0,42,0.00,,,0.00,88,Wunderground v.1.15,2013-02-12 17:55:00,
2013-02-12 13:00:00,51.7,26.2,29.93,NNW,333,5.0,13.0,37,0.00,,,0.00,72,Wunderground v.1.15,2013-02-12 18:00:00,
2013-02-12 13:05:00,51.6,28.6,29.93,WNW,284,5.0,13.0,41,0.00,,,0.00,65,Wunderground v.1.15,2013-02-12 18:05:00,
2013-02-12 13:10:00,51.6,27.4,29.93,North,355,3.0,13.0,39,0.00,,,0.00,51,Wunderground v.1.15,2013-02-12 18:10:00,
2013-02-12 13:15:00,51.7,28.1,29.93,NNW,348,4.0,13.0,40,0.00,,,0.00,63,Wunderground v.1.15,2013-02-12 18:15:00,
2013-02-12 13:21:00,51.7,26.2,29.93,NNW,345,4.0,4.0,37,0.00,,,0.00,53,Wunderground v.1.15,2013-02-12 18:21:00,
2013-02-12 13:30:00,51.9,27.7,29.92,NNW,346,4.0,4.0,39,0.00,,,0.00,62,Wunderground v.1.15,2013-02-12 18:30:00,
2013-02-12 13:35:00,52.0,27.8,29.92,NNW,344,3.0,11.0,39,0.00,,,0.00,58,Wunderground v.1.15,2013-02-12 18:35:00,
2013-02-12 13:45:00,52.2,26.0,29.91,WNW,292,4.0,11.0,36,0.00,,,0.00,158,Wunderground v.1.15,2013-02-12 18:45:00,
2013-02-12 13:50:00,52.2,27.3,29.91,NNW,331,4.0,4.0,38,0.00,,,0.00,582,Wunderground v.1.15,2013-02-12 18:50:00,
2013-02-12 13:55:00,52.5,28.2,29.91,NNW,344,5.0,5.0,39,0.00,,,0.00,253,Wunderground v.1.15,2013-02-12 18:55:00,
2013-02-12 14:00:00,52.6,27.7,29.91,NNW,329,3.0,10.0,38,0.00,,,0.00,202,Wunderground v.1.15,2013-02-12 19:00:00,
2013-02-12 14:06:00,52.8,26.6,29.91,WNW,301,3.0,10.0,36,0.00,,,0.00,93,Wunderground v.1.15,2013-02-12 19:06:00,
2013-02-12 14:15:00,52.9,27.3,29.89,NW,315,2.0,10.0,37,0.00,,,0.00,287,Wunderground v.1.15,2013-02-12 19:15:00,
2013-02-12 14:20:00,52.8,27.2,29.89,NW,325,3.0,3.0,37,0.00,,,0.00,163,Wunderground v.1.15,2013-02-12 19:20:00,
2013-02-12 14:25:00,53.2,28.2,29.89,NW,325,3.0,9.0,38,0.00,,,0.00,526,Wunderground v.1.15,2013-02-12 19:25:00,
2013-02-12 14:30:00,53.6,29.2,29.87,NNW,348,3.0,3.0,39,0.00,,,0.00,515,Wunderground v.1.15,2013-02-12 19:30:00,
2013-02-12 14:35:00,53.6,27.3,29.87,North,360,3.0,9.0,36,0.00,,,0.00,504,Wunderground v.1.15,2013-02-12 19:35:00,
2013-02-12 14:40:00,53.3,27.0,29.87,ENE,65,3.0,9.0,36,0.00,,,0.00,496,Wunderground v.1.15,2013-02-12 19:40:00,
2013-02-12 14:46:00,52.9,25.3,29.87,ENE,60,5.0,11.0,34,0.00,,,0.00,483,Wunderground v.1.15,2013-02-12 19:46:00,
2013-02-12 14:55:00,52.3,26.1,29.87,NNE,23,6.0,11.0,36,0.00,,,0.00,457,Wunderground v.1.15,2013-02-12 19:55:00,
2013-02-12 15:00:00,52.6,27.0,29.83,North,5,6.0,11.0,37,0.00,,,0.00,448,Wunderground v.1.15,2013-02-12 20:00:00,
2013-02-12 15:05:00,53.1,28.1,29.83,North,10,6.0,11.0,38,0.00,,,0.00,436,Wunderground v.1.15,2013-02-12 20:05:00,
2013-02-12 15:10:00,53.2,26.9,29.83,North,5,5.0,11.0,36,0.00,,,0.00,425,Wunderground v.1.15,2013-02-12 20:10:00,
2013-02-12 15:15:00,52.9,26.0,29.83,NNE,19,4.0,11.0,35,0.00,,,0.00,411,Wunderground v.1.15,2013-02-12 20:15:00,
2013-02-12 15:21:00,53.1,26.8,29.83,North,5,3.0,3.0,36,0.00,,,0.00,397,Wunderground v.1.15,2013-02-12 20:21:00,
2013-02-12 15:30:00,53.3,26.3,29.88,North,355,2.0,11.0,35,0.00,,,0.00,366,Wunderground v.1.15,2013-02-12 20:30:00,
2013-02-12 15:35:00,53.6,26.6,29.88,North,355,2.0,11.0,35,0.00,,,0.00,355,Wunderground v.1.15,2013-02-12 20:35:00,
2013-02-12 15:40:00,53.6,26.6,29.88,North,355,1.0,1.0,35,0.00,,,0.00,341,Wunderground v.1.15,2013-02-12 20:40:00,
2013-02-12 15:45:00,53.8,26.8,29.89,North,355,0.0,8.0,35,0.00,,,0.00,325,Wunderground v.1.15,2013-02-12 20:45:00,
2013-02-12 15:50:00,53.9,26.8,29.89,NNW,338,1.0,8.0,35,0.00,,,0.00,311,Wunderground v.1.15,2013-02-12 20:50:00,
2013-02-12 15:55:00,53.9,26.8,29.89,West,262,2.0,8.0,35,0.00,,,0.00,294,Wunderground v.1.15,2013-02-12 20:55:00,
2013-02-12 16:00:00,54.1,28.4,29.92,SW,219,3.0,3.0,37,0.00,,,0.00,281,Wunderground v.1.15,2013-02-12 21:00:00,
2013-02-12 16:10:00,53.5,27.2,29.92,SW,219,1.0,8.0,36,0.00,,,0.00,250,Wunderground v.1.15,2013-02-12 21:10:00,
2013-02-12 16:16:00,52.9,28.6,29.90,SW,219,1.0,8.0,39,0.00,,,0.00,236,Wunderground v.1.15,2013-02-12 21:16:00,
2013-02-12 16:25:00,51.6,28.6,29.90,SSW,212,2.0,8.0,41,0.00,,,0.00,125,Wunderground v.1.15,2013-02-12 21:25:00,
2013-02-12 16:30:00,51.1,27.6,29.91,SSW,211,2.0,8.0,40,0.00,,,0.00,193,Wunderground v.1.15,2013-02-12 21:30:00,
2013-02-12 16:35:00,51.3,27.8,29.91,SSW,208,2.0,8.0,40,0.00,,,0.00,197,Wunderground v.1.15,2013-02-12 21:35:00,
2013-02-12 16:40:00,51.4,27.9,29.91,SSW,208,2.0,2.0,40,0.00,,,0.00,178,Wunderground v.1.15,2013-02-12 21:40:00,
2013-02-12 16:45:00,51.6,30.4,29.91,SSW,208,0.0,6.0,44,0.00,,,0.00,107,Wunderground v.1.15,2013-02-12 21:45:00,
2013-02-12 16:50:00,51.6,29.8,29.91,SW,230,2.0,9.0,43,0.00,,,0.00,114,Wunderground v.1.15,2013-02-12 21:50:00,
2013-02-12 16:55:00,51.3,29.0,29.91,SW,226,6.0,9.0,42,0.00,,,0.00,109,Wunderground v.1.15,2013-02-12 21:55:00,
2013-02-12 17:00:00,51.3,29.5,29.90,SW,226,4.0,4.0,43,0.00,,,0.00,79,Wunderground v.1.15,2013-02-12 22:00:00,
2013-02-12 17:06:00,51.3,31.2,29.90,SW,226,2.0,6.0,46,0.00,,,0.00,19,Wunderground v.1.15,2013-02-12 22:06:00,
2013-02-12 17:16:00,50.5,30.5,29.89,SW,226,0.0,10.0,46,0.00,,,0.00,16,Wunderground v.1.15,2013-02-12 22:16:00,
2013-02-12 17:25:00,49.5,30.1,29.89,SW,226,0.0,10.0,47,0.00,,,0.00,7,Wunderground v.1.15,2013-02-12 22:25:00,
2013-02-12 17:30:00,49.1,30.2,29.90,SW,226,0.0,10.0,48,0.00,,,0.00,5,Wunderground v.1.15,2013-02-12 22:30:00,
2013-02-12 17:36:00,48.5,30.7,29.90,SW,226,0.0,10.0,50,0.00,,,0.00,0,Wunderground v.1.15,2013-02-12 22:36:00,
2013-02-12 17:45:00,47.4,30.6,29.90,SW,226,0.0,10.0,52,0.00,,,0.00,0,Wunderground v.1.15,2013-02-12 22:45:00,
2013-02-12 17:50:00,47.1,30.8,29.90,SW,226,0.0,2.0,53,0.00,,,0.00,0,Wunderground v.1.15,2013-02-12 22:50:00,
2013-02-12 17:55:00,46.7,30.9,29.90,SW,226,0.0,2.0,54,0.00,,,0.00,0,Wunderground v.1.15,2013-02-12 22:55:00,
2013-02-12 18:01:00,46.4,30.6,29.92,SW,226,0.0,2.0,54,0.00,,,0.00,0,Wunderground v.1.15,2013-02-12 23:01:00,
2013-02-12 18:10:00,45.8,30.5,29.92,SW,226,0.0,2.0,55,0.00,,,0.00,0,Wunderground v.1.15,2013-02-12 23:10:00,
2013-02-12 18:15:00,45.4,30.6,29.92,SW,226,0.0,2.0,56,0.00,,,0.00,0,Wunderground v.1.15,2013-02-12 23:15:00,
2013-02-12 18:20:00,45.2,30.0,29.92,SW,226,0.0,0.0,55,0.00,,,0.00,0,Wunderground v.1.15,2013-02-12 23:20:00,
2013-02-12 18:25:00,45.2,30.0,29.92,SW,226,0.0,0.0,55,0.00,,,0.00,0,Wunderground v.1.15,2013-02-12 23:25:00,
2013-02-12 18:31:00,44.9,31.0,29.92,SW,226,0.0,0.0,58,0.00,,,0.00,0,Wunderground v.1.15,2013-02-12 23:31:00,
2013-02-12 18:40:00,44.3,31.3,29.92,SW,226,1.0,1.0,60,0.00,,,0.00,0,Wunderground v.1.15,2013-02-12 23:40:00,
2013-02-12 18:45:00,44.1,30.7,29.92,SW,226,1.0,4.0,59,0.00,,,0.00,0,Wunderground v.1.15,2013-02-12 23:45:00,
2013-02-12 18:50:00,44.1,30.7,29.92,SW,226,0.0,4.0,59,0.00,,,0.00,0,Wunderground v.1.15,2013-02-12 23:50:00,
2013-02-12 18:55:00,44.1,30.7,29.92,SW,226,0.0,4.0,59,0.00,,,0.00,0,Wunderground v.1.15,2013-02-12 23:55:00,
2013-02-12 19:00:00,44.1,31.1,29.93,SW,226,0.0,4.0,60,0.00,,,0.00,0,Wunderground v.1.15,2013-02-13 00:00:00,
2013-02-12 19:05:00,43.8,31.2,29.93,SW,226,0.0,4.0,61,0.00,,,0.00,0,Wunderground v.1.15,2013-02-13 00:05:00,
2013-02-12 19:10:00,43.6,30.6,29.93,SW,226,0.0,4.0,60,0.00,,,0.00,0,Wunderground v.1.15,2013-02-13 00:10:00,
2013-02-12 19:15:00,43.5,30.9,29.93,SW,226,0.0,4.0,61,0.00,,,0.00,0,Wunderground v.1.15,2013-02-13 00:15:00,
2013-02-12 19:20:00,43.3,31.1,29.93,SW,226,0.0,3.0,62,0.00,,,0.00,0,Wunderground v.1.15,2013-02-13 00:20:00,
2013-02-12 19:25:00,43.1,31.0,29.93,SW,226,0.0,3.0,62,0.00,,,0.00,0,Wunderground v.1.15,2013-02-13 00:25:00,
2013-02-12 19:31:00,42.9,31.2,29.92,SW,226,0.0,3.0,63,0.00,,,0.00,0,Wunderground v.1.15,2013-02-13 00:31:00,
2013-02-12 19:40:00,42.5,31.2,29.92,SW,226,2.0,3.0,64,0.00,,,0.00,0,Wunderground v.1.15,2013-02-13 00:40:00,
2013-02-12 19:45:00,42.3,31.7,29.92,SW,226,2.0,3.0,66,0.00,,,0.00,0,Wunderground v.1.15,2013-02-13 00:45:00,
2013-02-12 19:50:00,41.9,31.7,29.92,SW,226,3.0,3.0,67,0.00,,,0.00,0,Wunderground v.1.15,2013-02-13 00:50:00,
2013-02-12 20:00:00,41.5,31.7,29.91,SW,226,2.0,3.0,68,0.00,,,0.00,0,Wunderground v.1.15,2013-02-13 01:00:00,
2013-02-12 20:05:00,41.5,32.1,29.91,SW,226,1.0,3.0,69,0.00,,,0.00,0,Wunderground v.1.15,2013-02-13 01:05:00,
2013-02-12 20:10:00,41.3,31.5,29.91,SW,226,0.0,3.0,68,0.00,,,0.00,0,Wunderground v.1.15,2013-02-13 01:10:00,
2013-02-12 20:16:00,41.3,31.9,29.91,SW,226,0.0,5.0,69,0.00,,,0.00,0,Wunderground v.1.15,2013-02-13 01:16:00,
2013-02-12 20:25:00,41.2,31.4,29.91,SW,226,1.0,5.0,68,0.00,,,0.00,0,Wunderground v.1.15,2013-02-13 01:25:00,
2013-02-12 20:30:00,41.2,31.1,29.90,SW,226,1.0,5.0,67,0.00,,,0.00,0,Wunderground v.1.15,2013-02-13 01:30:00,
2013-02-12 20:35:00,41.3,30.4,29.90,SW,226,2.0,5.0,65,0.00,,,0.00,0,Wunderground v.1.15,2013-02-13 01:35:00,
2013-02-12 20:40:00,41.5,31.0,29.90,SW,226,3.0,5.0,66,0.00,,,0.00,0,Wunderground v.1.15,2013-02-13 01:40:00,
2013-02-12 20:46:00,41.6,31.4,29.90,SW,226,4.0,5.0,67,0.00,,,0.00,0,Wunderground v.1.15,2013-02-13 01:46:00,
2013-02-12 20:55:00,41.3,31.2,29.90,SW,226,1.0,5.0,67,0.00,,,0.00,0,Wunderground v.1.15,2013-02-13 01:55:00,
2013-02-12 21:00:00,41.3,30.8,29.90,SW,226,1.0,5.0,66,0.00,,,0.00,0,Wunderground v.1.15,2013-02-13 02:00:00,
2013-02-12 21:05:00,41.3,30.4,29.90,SW,225,2.0,5.0,65,0.00,,,0.00,0,Wunderground v.1.15,2013-02-13 02:05:00,
2013-02-12 21:15:00,41.6,29.9,29.90,SW,225,3.0,5.0,63,0.00,,,0.00,0,Wunderground v.1.15,2013-02-13 02:15:00,
2013-02-12 21:21:00,41.8,30.1,29.90,ESE,110,4.0,5.0,63,0.00,,,0.00,0,Wunderground v.1.15,2013-02-13 02:21:00,
2013-02-12 21:30:00,41.9,29.4,29.91,ENE,59,5.0,5.0,61,0.00,,,0.00,0,Wunderground v.1.15,2013-02-13 02:30:00,
2013-02-12 21:35:00,42.2,29.3,29.91,NE,55,5.0,5.0,60,0.00,,,0.00,0,Wunderground v.1.15,2013-02-13 02:35:00,
2013-02-12 21:40:00,42.5,29.6,29.91,NE,54,4.0,6.0,60,0.00,,,0.00,0,Wunderground v.1.15,2013-02-13 02:40:00,
2013-02-12 21:45:00,42.6,29.7,29.91,NE,51,4.0,9.0,60,0.00,,,0.00,0,Wunderground v.1.15,2013-02-13 02:45:00,
2013-02-12 21:50:00,42.8,29.5,29.91,NE,53,5.0,9.0,59,0.00,,,0.00,0,Wunderground v.1.15,2013-02-13 02:50:00,
2013-02-12 21:55:00,42.9,29.5,29.91,NE,53,5.0,9.0,59,0.00,,,0.00,0,Wunderground v.1.15,2013-02-13 02:55:00,
2013-02-12 22:00:00,42.9,29.5,29.91,NNE,32,4.0,9.0,59,0.00,,,0.00,0,Wunderground v.1.15,2013-02-13 03:00:00,
2013-02-12 22:05:00,42.8,29.9,29.91,NE,46,3.0,9.0,60,0.00,,,0.00,0,Wunderground v.1.15,2013-02-13 03:05:00,
2013-02-12 22:11:00,42.6,29.7,29.91,NE,55,3.0,9.0,60,0.00,,,0.00,0,Wunderground v.1.15,2013-02-13 03:11:00,
2013-02-12 22:20:00,42.3,29.4,29.92,NE,49,4.0,4.0,60,0.00,,,0.00,0,Wunderground v.1.15,2013-02-13 03:20:00,
2013-02-12 22:30:00,42.2,29.7,29.93,NE,53,3.0,9.0,61,0.00,,,0.00,0,Wunderground v.1.15,2013-02-13 03:30:00,
2013-02-12 22:35:00,42.1,29.6,29.93,NE,55,3.0,9.0,61,0.00,,,0.00,0,Wunderground v.1.15,2013-02-13 03:35:00,
2013-02-12 22:40:00,42.1,29.6,29.93,ENE,59,3.0,9.0,61,0.00,,,0.00,0,Wunderground v.1.15,2013-02-13 03:40:00,
2013-02-12 22:45:00,41.9,29.4,29.92,NE,55,3.0,9.0,61,0.00,,,0.00,0,Wunderground v.1.15,2013-02-13 03:45:00,
2013-02-12 22:51:00,41.8,29.3,29.92,ENE,62,3.0,3.0,61,0.00,,,0.00,0,Wunderground v.1.15,2013-02-13 03:51:00,
2013-02-12 23:00:00,41.6,29.9,29.91,ENE,62,1.0,9.0,63,0.00,,,0.00,0,Wunderground v.1.15,2013-02-13 04:00:00,
2013-02-12 23:05:00,41.5,30.2,29.91,ENE,62,1.0,9.0,64,0.00,,,0.00,0,Wunderground v.1.15,2013-02-13 04:05:00,
2013-02-12 23:10:00,41.5,30.2,29.91,ENE,63,1.0,9.0,64,0.00,,,0.00,0,Wunderground v.1.15,2013-02-13 04:10:00,
2013-02-12 23:15:00,41.2,29.9,29.90,ENE,71,1.0,9.0,64,0.00,,,0.00,0,Wunderground v.1.15,2013-02-13 04:15:00,
2013-02-12 23:20:00,41.2,29.9,29.90,ENE,75,1.0,1.0,64,0.00,,,0.00,0,Wunderground v.1.15,2013-02-13 04:20:00,
2013-02-12 23:25:00,41.3,29.6,29.90,ENE,78,2.0,2.0,63,0.00,,,0.00,0,Wunderground v.1.15,2013-02-13 04:25:00,
2013-02-12 23:30:00,41.2,29.9,29.90,East,82,1.0,1.0,64,0.00,,,0.00,0,Wunderground v.1.15,2013-02-13 04:30:00,
2013-02-12 23:35:00,41.1,29.5,29.90,East,94,2.0,3.0,63,0.00,,,0.00,0,Wunderground v.1.15,2013-02-13 04:35:00,
2013-02-12 23:40:00,41.1,29.5,29.90,East,94,2.0,2.0,63,0.00,,,0.00,0,Wunderground v.1.15,2013-02-13 04:40:00,
2013-02-12 23:46:00,41.1,29.8,29.91,East,99,1.0,7.0,64,0.00,,,0.00,0,Wunderground v.1.15,2013-02-13 04:46:00,
2013-02-12 23:55:00,40.8,29.6,29.91,East,90,2.0,7.0,64,0.00,,,0.00,0,Wunderground v.1.15,2013-02-13 04:55:00,